Time;durP1;ratioP1;P1;durP2;ratioP2;P2;SDS_P1;SDS_P2;PMS_P1;PMS_P2;Temp;Humidity;BMP_temperature;BMP_pressure;BME280_temperature;BME280_humidity;BME280_pressure;Samples;Min_cycle;Max_cycle;Signal;HPM_P1;HPM_P2
2022/08/13 00:01:38;;;;;;;15.07;4.83;;;;;;;16.75;53.54;99785.91;5014406;28;20041;-75
2022/08/13 00:04:09;;;;;;;9.88;4.50;;;;;;;16.66;53.70;99778.69;5032281;28;20485;-76
2022/08/13 00:09:10;;;;;;;10.93;4.03;;;;;;;16.58;54.27;99783.97;5031244;28;20041;-75
2022/08/13 00:14:27;;;;;;;12.95;4.57;;;;;;;16.47;54.46;99782.34;5031756;28;20049;-75
2022/08/13 00:16:54;;;;;;;10.65;4.05;;;;;;;16.40;54.58;99775.84;5015272;28;20052;-74
2022/08/13 00:19:21;;;;;;;14.68;5.30;;;;;;;16.33;55.04;99777.44;5035528;28;20570;-75
2022/08/13 00:21:47;;;;;;;10.00;3.90;;;;;;;16.36;55.04;99781.66;5035105;28;20492;-76
2022/08/13 00:24:14;;;;;;;13.80;4.32;;;;;;;16.34;54.86;99787.22;5018290;28;20060;-75
2022/08/13 00:26:40;;;;;;;12.70;4.00;;;;;;;16.33;55.08;99784.69;5034889;28;20041;-75
2022/08/13 00:29:06;;;;;;;8.82;3.55;;;;;;;16.31;55.32;99792.06;5034331;28;20079;-75
2022/08/13 00:31:32;;;;;;;6.78;3.53;;;;;;;16.25;55.46;99778.19;5034878;28;20046;-75
2022/08/13 00:33:59;;;;;;;7.25;3.67;;;;;;;16.25;55.36;99780.03;5018218;28;20044;-74
2022/08/13 00:36:35;;;;;;;13.55;4.05;;;;;;;16.23;55.41;99782.88;5034379;28;20083;-74
2022/08/13 00:39:06;;;;;;;6.60;4.00;;;;;;;16.15;55.48;99774.66;5035348;28;20152;-75
2022/08/13 00:41:38;;;;;;;8.20;4.00;;;;;;;16.18;55.37;99779.78;5018538;28;20049;-76
2022/08/13 00:44:06;;;;;;;10.27;3.90;;;;;;;16.17;55.83;99790.69;5018263;28;20404;-76
2022/08/13 00:46:33;;;;;;;12.95;4.57;;;;;;;16.13;55.54;99784.75;5035502;28;20090;-75
2022/08/13 00:49:03;;;;;;;9.98;3.80;;;;;;;16.11;55.74;99783.22;5017790;28;20053;-75
2022/08/13 00:51:30;;;;;;;12.95;3.90;;;;;;;16.08;55.91;99792.44;5017725;28;20045;-76
2022/08/13 00:53:58;;;;;;;9.85;3.88;;;;;;;16.06;56.00;99780.97;5017633;28;20127;-76
2022/08/13 00:56:26;;;;;;;10.52;4.13;;;;;;;16.04;56.18;99782.94;5018032;28;20048;-75
2022/08/13 00:58:53;;;;;;;8.52;4.22;;;;;;;16.00;56.10;99789.63;5017499;28;20049;-76
2022/08/13 01:01:25;;;;;;;9.55;5.25;;;;;;;16.05;56.23;99792.72;5034030;28;20053;-76
2022/08/13 01:03:51;;;;;;;13.07;4.05;;;;;;;16.00;56.53;99778.84;5035589;28;20045;-75
2022/08/13 01:06:20;;;;;;;11.35;3.90;;;;;;;16.06;56.11;99789.06;5017621;28;20091;-75
2022/08/13 01:08:48;;;;;;;9.80;3.90;;;;;;;16.04;56.20;99780.25;5017223;28;20091;-76
2022/08/13 01:11:14;;;;;;;7.40;3.73;;;;;;;16.07;56.16;99790.75;5033799;28;20056;-77
2022/08/13 01:13:43;;;;;;;14.18;4.28;;;;;;;16.08;56.33;99792.44;5033623;28;20037;-76
2022/08/13 01:16:14;;;;;;;8.80;3.50;;;;;;;16.10;56.39;99795.84;5033881;28;20060;-75
2022/08/13 01:18:46;;;;;;;7.18;4.03;;;;;;;16.12;56.14;99793.84;5035261;28;20132;-76
2022/08/13 01:21:18;;;;;;;10.48;3.70;;;;;;;16.15;56.22;99796.25;5033886;28;20041;-76
2022/08/13 01:23:48;;;;;;;8.15;4.13;;;;;;;16.15;56.10;99793.53;5034112;28;20045;-76
2022/08/13 01:26:15;;;;;;;8.20;3.90;;;;;;;16.21;56.40;99792.09;5017069;28;20037;-75
2022/08/13 01:28:43;;;;;;;8.35;4.13;;;;;;;16.24;56.20;99792.66;5034669;28;20049;-76
2022/08/13 01:31:11;;;;;;;14.77;4.55;;;;;;;16.26;55.82;99798.75;4999836;28;20041;-76
2022/08/13 01:33:41;;;;;;;14.45;3.70;;;;;;;16.27;56.01;99802.31;5017133;28;20041;-76
2022/08/13 01:36:07;;;;;;;13.27;4.28;;;;;;;16.30;56.14;99801.16;5034637;28;20049;-75
2022/08/13 01:38:40;;;;;;;12.57;4.07;;;;;;;16.25;55.71;99788.97;5016780;28;20140;-75
2022/08/13 01:41:10;;;;;;;10.10;4.10;;;;;;;16.32;56.03;99800.00;5016940;28;20049;-76
2022/08/13 01:43:40;;;;;;;9.80;4.03;;;;;;;16.35;55.82;99799.72;5016820;28;20496;-75
2022/08/13 01:46:08;;;;;;;14.57;3.97;;;;;;;16.33;55.55;99790.09;5000588;28;20374;-76
2022/08/13 01:51:24;;;;;;;13.02;4.35;;;;;;;16.39;55.85;99800.25;5034414;28;20068;-76
2022/08/13 01:53:55;;;;;;;12.93;4.32;;;;;;;16.39;55.96;99790.31;5034411;28;20053;-76
2022/08/13 01:56:23;;;;;;;12.05;4.32;;;;;;;16.43;55.85;99790.88;5034657;28;20133;-76
2022/08/13 01:58:50;;;;;;;17.50;4.43;;;;;;;16.42;56.01;99794.56;5034023;28;20043;-77
2022/08/13 02:01:17;;;;;;;12.55;3.97;;;;;;;16.47;55.70;99787.75;5033792;28;20037;-77
2022/08/13 02:03:49;;;;;;;9.60;4.55;;;;;;;16.48;55.57;99784.03;5033148;28;20041;-76
2022/08/13 02:06:26;;;;;;;12.20;4.75;;;;;;;16.55;55.73;99794.22;5034562;28;20096;-76
2022/08/13 02:08:59;;;;;;;14.60;4.55;;;;;;;16.59;55.49;99788.38;5016697;28;20132;-76
2022/08/13 02:11:27;;;;;;;9.88;4.43;;;;;;;16.60;55.39;99791.94;5032858;28;20128;-76
2022/08/13 02:13:54;;;;;;;13.75;4.57;;;;;;;16.61;55.65;99788.22;5016045;28;20052;-76
2022/08/13 02:16:21;;;;;;;23.88;5.18;;;;;;;16.63;55.55;99797.88;5016013;28;20041;-77
2022/08/13 02:18:47;;;;;;;16.65;4.75;;;;;;;16.66;55.32;99794.88;5033789;28;20047;-77
2022/08/13 02:21:13;;;;;;;16.00;4.60;;;;;;;16.71;55.40;99806.06;5032616;28;20391;-75
2022/08/13 02:23:39;;;;;;;12.73;4.80;;;;;;;16.72;55.46;99801.53;5032516;28;20053;-76
2022/08/13 02:26:05;;;;;;;14.57;4.75;;;;;;;16.75;55.08;99802.09;5015834;28;20041;-75
2022/08/13 02:28:37;;;;;;;12.77;4.75;;;;;;;16.82;55.11;99796.94;5031858;28;20412;-76
2022/08/13 02:31:03;;;;;;;11.52;4.63;;;;;;;16.87;54.63;99793.78;5016237;28;20402;-76
2022/08/13 02:33:29;;;;;;;13.88;4.88;;;;;;;16.95;54.75;99796.56;5033358;28;20143;-75
2022/08/13 02:35:55;;;;;;;11.45;4.18;;;;;;;17.00;54.23;99788.88;5016509;28;20038;-76
2022/08/13 02:38:21;;;;;;;7.85;4.20;;;;;;;17.09;54.19;99795.19;5015314;28;20045;-76
2022/08/13 02:43:32;;;;;;;13.48;4.10;;;;;;;17.15;54.52;99795.44;5032375;28;20134;-75
2022/08/13 02:46:00;;;;;;;9.07;4.20;;;;;;;17.13;54.15;99783.09;5032263;28;20077;-77
2022/08/13 02:48:26;;;;;;;16.17;4.63;;;;;;;17.22;54.20;99793.78;5015278;28;20094;-76
2022/08/13 02:50:55;;;;;;;10.68;3.88;;;;;;;17.29;53.99;99799.44;5031710;28;20049;-76
2022/08/13 02:53:23;;;;;;;10.85;4.40;;;;;;;17.33;53.68;99784.63;4999434;28;20037;-76
2022/08/13 02:55:50;;;;;;;14.73;4.47;;;;;;;17.42;53.82;99793.66;5031957;28;20419;-76
2022/08/13 02:58:17;;;;;;;9.77;4.18;;;;;;;17.46;53.64;99776.13;5014846;28;20099;-76
2022/08/13 03:00:48;;;;;;;18.33;4.30;;;;;;;17.59;53.42;99775.72;5031917;28;20496;-77
2022/08/13 03:03:16;;;;;;;14.35;4.30;;;;;;;17.71;53.41;99788.84;5032905;28;20036;-76
2022/08/13 03:05:42;;;;;;;13.07;4.30;;;;;;;17.73;53.32;99765.19;5051715;28;20051;-78
2022/08/13 03:08:08;;;;;;;12.63;4.15;;;;;;;17.83;53.26;99761.56;5018630;28;20136;-76
2022/08/13 03:10:34;;;;;;;11.48;4.75;;;;;;;17.99;52.85;99779.75;5052832;28;20041;-77
2022/08/13 03:13:37;;;;;;;16.13;4.55;;;;;;;18.07;52.38;99772.53;5051363;28;20043;-76
2022/08/13 03:16:05;;;;;;;10.60;4.43;;;;;;;18.15;52.64;99774.41;5033903;28;20047;-75
2022/08/13 03:18:31;;;;;;;10.23;3.88;;;;;;;18.24;52.14;99776.19;5052265;28;20052;-76
2022/08/13 03:20:57;;;;;;;16.42;5.65;;;;;;;18.24;52.29;99764.47;5052885;28;20037;-74
2022/08/13 03:23:24;;;;;;;23.45;7.05;;;;;;;18.39;51.84;99782.69;5051233;28;20045;-76
2022/08/13 03:25:50;;;;;;;29.52;7.72;;;;;;;18.46;51.88;99772.03;5051843;28;20049;-79
2022/08/13 03:28:16;;;;;;;21.77;8.18;;;;;;;18.48;51.57;99764.59;5034936;28;20040;-76
2022/08/13 03:30:43;;;;;;;17.65;7.55;;;;;;;18.61;51.46;99775.81;5034968;28;20033;-79
2022/08/13 03:33:13;;;;;;;20.77;9.50;;;;;;;18.70;51.54;99768.56;5035182;28;20151;-79
2022/08/13 03:35:40;;;;;;;21.65;8.02;;;;;;;18.78;51.57;99770.50;5052368;28;20495;-78
2022/08/13 03:38:10;;;;;;;26.95;8.35;;;;;;;18.88;51.14;99771.16;5052139;28;20048;-76
2022/08/13 03:43:22;;;;;;;28.95;12.23;;;;;;;18.87;50.95;99759.50;5025421;28;20099;-75
2022/08/13 03:45:48;;;;;;;34.13;11.40;;;;;;;18.98;51.24;99769.16;5027078;28;20040;-75
2022/08/13 03:48:15;;;;;;;30.83;9.25;;;;;;;19.03;51.27;99769.53;5050834;28;20094;-75
2022/08/13 03:50:44;;;;;;;30.45;9.23;;;;;;;19.16;50.97;99767.16;5034462;28;20132;-75
2022/08/13 03:53:10;;;;;;;17.10;6.15;;;;;;;19.30;50.69;99770.25;5019140;28;20106;-75
2022/08/13 03:55:42;;;;;;;18.95;5.95;;;;;;;19.42;50.61;99768.88;5021883;28;20480;-81
2022/08/13 03:58:11;;;;;;;17.48;5.57;;;;;;;19.53;50.27;99763.13;5055348;28;20045;-77
2022/08/13 04:00:40;;;;;;;22.98;5.18;;;;;;;19.51;50.35;99758.88;5056314;28;20049;-76
2022/08/13 04:03:19;;;;;;;;;;;;;;;19.57;50.23;99766.34;5038721;28;20037;-75
2022/08/13 04:05:46;;;;;;;14.43;5.30;;;;;;;19.64;50.19;99767.38;5038153;28;19969;-79
2022/08/13 04:08:13;;;;;;;16.42;5.22;;;;;;;19.77;50.08;99766.84;5055168;28;20044;-76
2022/08/13 04:10:40;;;;;;;14.48;5.18;;;;;;;19.91;49.72;99763.44;5054827;28;20130;-76
2022/08/13 04:13:15;;;;;;;18.92;5.97;;;;;;;19.96;49.78;99755.63;5055005;28;20056;-76
2022/08/13 04:15:46;;;;;;;17.80;5.38;;;;;;;20.14;49.59;99764.41;5055653;28;20057;-79
2022/08/13 04:18:13;;;;;;;18.77;5.45;;;;;;;20.26;49.54;99758.59;5037724;28;20055;-76
2022/08/13 04:20:47;;;;;;;14.18;5.47;;;;;;;20.38;49.06;99749.91;5037948;28;20048;-75
2022/08/13 04:23:16;;;;;;;11.30;4.28;;;;;;;20.54;48.73;99759.88;5054630;28;20195;-76
2022/08/13 04:25:47;;;;;;;15.43;4.40;;;;;;;20.60;48.85;99759.16;5021214;28;20041;-76
2022/08/13 04:28:15;;;;;;;15.07;4.90;;;;;;;20.72;48.69;99756.03;5038021;28;20319;-75
2022/08/13 04:30:42;;;;;;;13.17;3.87;;;;;;;20.73;48.43;99746.91;5038001;28;20083;-76
2022/08/13 04:33:11;;;;;;;15.40;4.00;;;;;;;20.92;48.36;99746.44;5054531;28;20835;-77
2022/08/13 04:35:38;;;;;;;17.98;4.60;;;;;;;21.04;48.29;99758.56;5055531;28;20040;-76
2022/08/13 04:38:08;;;;;;;13.40;4.25;;;;;;;21.17;48.29;99760.69;5053086;28;20119;-75
2022/08/13 04:40:35;;;;;;;12.90;5.32;;;;;;;21.19;48.25;99753.19;5054059;28;20041;-75
2022/08/13 04:43:06;;;;;;;10.75;4.30;;;;;;;21.29;48.05;99761.13;5037502;28;20041;-76
2022/08/13 04:45:34;;;;;;;9.20;3.88;;;;;;;21.43;48.27;99756.78;5037521;28;20037;-75
2022/08/13 04:48:07;;;;;;;18.40;4.38;;;;;;;21.54;47.65;99749.03;5055355;28;20045;-75
2022/08/13 04:50:35;;;;;;;17.77;5.53;;;;;;;21.54;47.63;99749.03;5054882;28;20045;-76
2022/08/13 04:53:04;;;;;;;10.27;4.07;;;;;;;21.55;47.93;99739.88;5037138;28;20469;-75
2022/08/13 04:55:30;;;;;;;11.05;4.47;;;;;;;21.72;47.84;99753.31;5053757;28;20066;-75
2022/08/13 04:57:56;;;;;;;8.20;3.67;;;;;;;21.86;47.69;99752.47;5054638;28;20086;-75
2022/08/13 05:00:24;;;;;;;9.52;4.10;;;;;;;21.96;47.31;99761.19;5037117;28;20049;-75
2022/08/13 05:02:54;;;;;;;14.23;4.57;;;;;;;21.99;47.15;99749.94;5053767;28;20060;-75
2022/08/13 05:05:24;;;;;;;14.38;5.05;;;;;;;22.16;46.98;99758.00;5053290;28;20106;-75
2022/08/13 05:07:52;;;;;;;14.52;4.13;;;;;;;22.21;47.26;99737.31;5053727;28;20450;-75
2022/08/13 05:10:19;;;;;;;14.85;3.92;;;;;;;22.40;46.65;99746.78;5055588;28;20445;-76
2022/08/13 05:12:47;;;;;;;10.55;3.70;;;;;;;22.52;46.56;99745.25;5053578;28;20045;-76
2022/08/13 05:15:13;;;;;;;10.68;3.85;;;;;;;22.74;46.06;99748.03;5053637;28;20090;-75
2022/08/13 05:17:40;;;;;;;9.20;4.03;;;;;;;22.94;45.88;99743.72;5053793;28;20136;-77
2022/08/13 05:20:15;;;;;;;6.57;3.45;;;;;;;23.00;45.89;99742.09;5053519;28;20488;-76
2022/08/13 05:22:42;;;;;;;16.85;3.80;;;;;;;23.09;45.71;99742.78;5020817;28;20091;-76
2022/08/13 05:25:08;;;;;;;7.72;3.92;;;;;;;23.35;45.17;99739.47;5053508;28;20040;-76
2022/08/13 05:27:34;;;;;;;14.38;4.03;;;;;;;23.54;44.91;99732.50;5036840;28;20037;-75
2022/08/13 05:30:00;;;;;;;15.80;4.03;;;;;;;23.66;44.55;99739.16;5054550;28;20067;-77
2022/08/13 05:32:27;;;;;;;11.48;3.40;;;;;;;23.84;44.38;99739.50;5036676;28;20071;-76
2022/08/13 05:34:53;;;;;;;19.23;3.90;;;;;;;23.83;43.84;99746.00;5054599;28;20045;-76
2022/08/13 05:37:19;;;;;;;11.07;3.63;;;;;;;23.89;44.25;99726.13;5037177;28;20045;-75
2022/08/13 05:39:47;;;;;;;12.10;3.30;;;;;;;24.10;43.62;99738.84;5036219;28;20444;-77
2022/08/13 05:42:13;;;;;;;10.40;3.38;;;;;;;24.15;43.48;99730.91;5036589;28;20048;-76
2022/08/13 05:44:39;;;;;;;7.75;3.40;;;;;;;24.30;43.52;99729.91;5054958;28;20056;-76
2022/08/13 05:47:05;;;;;;;10.20;3.13;;;;;;;24.42;43.09;99726.44;5053755;28;20438;-77
2022/08/13 05:49:33;;;;;;;10.23;3.22;;;;;;;24.60;42.92;99727.78;5052682;28;20041;-76
2022/08/13 05:52:01;;;;;;;11.00;4.05;;;;;;;24.74;42.66;99720.47;5036228;28;20562;-77
2022/08/13 05:54:27;;;;;;;7.13;3.50;;;;;;;24.58;42.22;99724.41;5053891;28;20048;-76
2022/08/13 05:56:53;;;;;;;9.00;3.13;;;;;;;24.77;42.79;99720.88;5052740;28;20041;-76
2022/08/13 06:04:49;;;;;;;10.38;4.35;;;;;;;25.21;41.43;99713.25;5035651;28;20052;-76
2022/08/13 06:07:19;;;;;;;11.48;4.07;;;;;;;25.33;41.54;99712.41;5035612;28;20404;-77
2022/08/13 06:09:45;;;;;;;7.95;4.45;;;;;;;25.43;41.28;99712.00;5052704;28;20117;-76
2022/08/13 06:12:14;;;;;;;7.63;4.10;;;;;;;25.41;41.13;99709.44;5019260;28;20041;-76
2022/08/13 06:14:40;;;;;;;10.05;3.70;;;;;;;25.46;41.46;99710.72;5052744;28;20048;-76
2022/08/13 06:17:06;;;;;;;7.47;3.50;;;;;;;25.59;41.32;99700.63;5035010;28;20373;-76
2022/08/13 06:19:35;;;;;;;12.73;3.45;;;;;;;25.89;40.53;99701.03;5052272;28;20079;-76
2022/08/13 06:22:04;;;;;;;5.97;3.60;;;;;;;25.99;40.40;99700.59;5052441;28;20053;-76
2022/08/13 06:24:37;;;;;;;12.65;3.55;;;;;;;26.08;40.19;99703.94;5035780;28;20037;-75
2022/08/13 06:27:05;;;;;;;10.07;3.78;;;;;;;26.29;40.22;99695.44;5019519;28;20048;-76
2022/08/13 06:29:35;;;;;;;13.38;3.60;;;;;;;26.16;38.59;99690.00;5019149;28;20051;-76
2022/08/13 06:32:04;;;;;;;14.55;3.45;;;;;;;25.72;39.95;99682.47;5052603;28;20500;-76
2022/08/13 06:34:34;;;;;;;11.30;3.55;;;;;;;25.85;40.25;99688.81;5053407;28;20049;-76
2022/08/13 06:37:05;;;;;;;7.70;3.40;;;;;;;25.82;39.87;99671.97;5035543;28;20037;-75
2022/08/13 06:39:32;;;;;;;7.40;3.20;;;;;;;26.22;39.70;99677.34;5034809;28;20048;-75
2022/08/13 06:42:02;;;;;;;7.43;2.95;;;;;;;26.49;37.86;99678.09;5035219;28;20170;-76
2022/08/13 06:44:32;;;;;;;4.57;2.60;;;;;;;26.39;36.33;99657.44;5051768;28;20412;-76
2022/08/13 06:47:03;;;;;;;8.45;2.70;;;;;;;26.55;36.08;99682.69;5053301;28;20049;-75
2022/08/13 06:49:31;;;;;;;5.63;2.20;;;;;;;26.51;35.04;99681.44;5051787;28;20056;-76
2022/08/13 06:51:58;;;;;;;4.28;2.00;;;;;;;26.26;35.58;99676.69;5052157;28;20044;-77
2022/08/13 06:54:24;;;;;;;1.95;1.80;;;;;;;26.42;35.73;99683.56;5053150;28;20076;-77
2022/08/13 06:56:54;;;;;;;5.55;2.22;;;;;;;26.36;35.13;99682.53;5051737;28;20534;-78
2022/08/13 06:59:24;;;;;;;17.90;2.40;;;;;;;26.49;35.80;99678.09;5051652;28;20492;-77
2022/08/13 07:01:57;;;;;;;9.82;2.10;;;;;;;26.69;34.82;99667.88;5051554;28;20040;-76
2022/08/13 07:04:24;;;;;;;8.63;2.20;;;;;;;26.88;34.78;99666.06;5033424;28;20492;-78
2022/08/13 07:06:51;;;;;;;11.43;2.28;;;;;;;27.08;34.58;99671.41;5020826;28;20146;-76
2022/08/13 07:09:19;;;;;;;6.45;1.85;;;;;;;27.00;34.68;99679.91;5043981;28;20103;-77
2022/08/13 07:11:45;;;;;;;14.90;2.40;;;;;;;26.98;34.27;99676.56;5017748;28;20040;-77
2022/08/13 07:14:14;;;;;;;8.23;2.63;;;;;;;27.07;34.27;99675.22;5034743;28;20132;-82
2022/08/13 07:16:42;;;;;;;7.18;2.38;;;;;;;27.31;34.10;99666.22;5052543;28;20052;-78
2022/08/13 07:19:12;;;;;;;2.20;1.80;;;;;;;27.54;33.66;99671.06;5017692;28;20511;-81
2022/08/13 07:21:39;;;;;;;6.22;1.85;;;;;;;27.57;33.13;99667.03;5034282;28;20055;-77
2022/08/13 07:24:07;;;;;;;3.00;1.90;;;;;;;27.53;33.61;99657.53;5018165;28;20499;-76
2022/08/13 07:26:34;;;;;;;5.77;1.83;;;;;;;27.63;32.91;99663.38;5052282;28;20045;-80
2022/08/13 07:29:05;;;;;;;5.53;1.70;;;;;;;27.42;33.09;99661.03;5052085;28;20045;-82
2022/08/13 07:31:39;;;;;;;6.53;1.80;;;;;;;27.30;33.14;99658.19;5051894;28;20049;-77
2022/08/13 07:34:06;;;;;;;3.65;1.80;;;;;;;27.64;33.28;99664.22;5017258;28;20041;-79
2022/08/13 07:36:36;;;;;;;4.95;1.80;;;;;;;27.77;33.22;99656.72;5053443;28;20048;-77
2022/08/13 07:39:08;;;;;;;5.00;1.90;;;;;;;27.86;33.20;99650.91;5034640;28;20095;-80
2022/08/13 07:41:40;;;;;;;3.53;1.70;;;;;;;28.18;32.86;99649.72;5033735;28;20084;-77
2022/08/13 07:44:10;;;;;;;5.55;1.98;;;;;;;28.12;32.58;99658.84;5034188;28;20557;-79
2022/08/13 07:46:42;;;;;;;4.55;1.70;;;;;;;27.70;33.30;99649.59;5017966;28;20040;-77
2022/08/13 07:49:10;;;;;;;6.28;2.00;;;;;;;27.64;33.45;99648.56;5035669;28;20537;-77
2022/08/13 07:51:37;;;;;;;10.93;1.77;;;;;;;28.03;33.46;99652.84;5052721;28;20099;-78
2022/08/13 07:54:05;;;;;;;3.50;1.55;;;;;;;28.25;32.35;99652.38;5053206;28;20040;-78
2022/08/13 07:56:31;;;;;;;3.42;2.53;;;;;;;27.95;32.50;99644.06;5052826;28;20519;-76
2022/08/13 07:59:12;;;;;;;12.70;2.10;;;;;;;27.83;32.78;99646.72;5069612;28;20086;-76
2022/08/13 08:01:48;;;;;;;5.88;1.80;;;;;;;27.96;32.38;99643.84;5036278;28;20575;-75
2022/08/13 08:04:15;;;;;;;4.85;1.60;;;;;;;28.01;32.39;99649.47;5052488;28;20044;-76
2022/08/13 08:06:46;;;;;;;3.40;2.15;;;;;;;28.14;32.18;99643.00;5053020;28;20094;-77
2022/08/13 08:09:23;;;;;;;6.57;1.50;;;;;;;28.16;32.33;99645.50;5052897;28;20557;-76
2022/08/13 08:14:37;;;;;;;4.50;1.40;;;;;;;28.32;30.96;99618.25;5053072;28;20048;-76
2022/08/13 08:17:05;;;;;;;4.75;1.50;;;;;;;28.31;31.49;99643.19;5052780;28;20063;-74
2022/08/13 08:19:31;;;;;;;4.63;1.55;;;;;;;28.24;31.40;99632.28;5048844;28;20049;-77
2022/08/13 08:22:04;;;;;;;5.93;1.55;;;;;;;28.18;31.44;99627.72;5050258;28;20049;-75
2022/08/13 08:24:32;;;;;;;8.43;1.70;;;;;;;28.31;31.57;99626.69;5051931;28;20045;-79
2022/08/13 08:27:02;;;;;;;;;;;;;;;28.49;31.19;99639.63;5041320;28;20660;-76
2022/08/13 08:29:31;;;;;;;2.50;1.48;;;;;;;28.45;30.76;99617.25;5029856;28;19956;-76
2022/08/13 08:32:07;;;;;;;4.28;2.03;;;;;;;28.78;30.56;99648.94;5013992;28;20041;-74
2022/08/13 08:34:36;;;;;;;4.72;1.50;;;;;;;28.68;31.03;99616.47;5029942;28;20501;-75
2022/08/13 08:37:02;;;;;;;;;;;;;;;29.01;30.46;99610.50;5030751;28;20128;-76
2022/08/13 08:45:03;;;;;;;4.63;2.30;;;;;;;29.17;30.58;99619.97;5033597;28;20440;-77
2022/08/13 08:47:31;;;;;;;6.32;1.65;;;;;;;29.13;30.66;99624.28;5034759;28;20053;-77
2022/08/13 08:49:58;;;;;;;5.85;1.55;;;;;;;29.36;30.58;99606.09;5016943;28;20080;-76
2022/08/13 08:55:17;;;;;;;6.22;1.40;;;;;;;30.19;29.89;99611.31;5035255;28;20037;-77
2022/08/13 08:57:44;;;;;;;3.08;1.50;;;;;;;30.34;29.27;99615.47;5000170;28;20044;-77
2022/08/13 09:00:15;;;;;;;9.68;1.30;;;;;;;30.33;29.22;99611.03;5033679;28;20044;-78
2022/08/13 09:02:45;;;;;;;4.13;1.67;;;;;;;29.79;28.85;99610.41;5017285;28;20137;-78
2022/08/13 09:05:13;;;;;;;4.00;1.50;;;;;;;29.61;28.56;99606.75;5033778;28;20057;-77
2022/08/13 09:07:42;;;;;;;2.45;1.42;;;;;;;29.80;28.65;99603.84;5017226;28;20505;-77
2022/08/13 09:10:12;;;;;;;9.23;1.75;;;;;;;29.95;28.57;99601.41;5034036;28;20441;-77
2022/08/13 09:12:41;;;;;;;1.77;1.20;;;;;;;30.20;28.57;99601.97;5033822;28;20037;-77
2022/08/13 09:15:07;;;;;;;3.03;1.20;;;;;;;30.15;28.76;99598.25;5034975;28;20178;-77
2022/08/13 09:17:34;;;;;;;3.13;1.55;;;;;;;29.98;29.15;99603.69;5034902;28;20068;-78
2022/08/13 09:20:01;;;;;;;4.97;1.55;;;;;;;30.32;29.36;99604.69;5033808;28;20075;-76
2022/08/13 09:22:28;;;;;;;9.73;1.58;;;;;;;30.69;28.74;99596.84;5034707;28;20175;-78
2022/08/13 09:24:57;;;;;;;5.30;1.60;;;;;;;30.84;28.36;99600.97;5033661;28;20140;-77
2022/08/13 09:27:22;;;;;;;;;;;;;;;31.18;28.33;99591.66;5033760;28;20042;-77
2022/08/13 09:29:50;;;;;;;7.25;1.55;;;;;;;31.54;27.63;99589.44;5016728;28;20349;-78
2022/08/13 09:32:17;;;;;;;4.55;1.30;;;;;;;31.25;27.21;99596.13;5033053;28;20041;-78
2022/08/13 09:34:46;;;;;;;3.22;1.60;;;;;;;30.72;28.17;99603.78;5000484;28;20048;-77
2022/08/13 09:37:12;;;;;;;6.38;1.80;;;;;;;30.63;27.97;99595.06;5016909;28;20053;-78
2022/08/13 09:39:49;;;;;;;7.30;1.73;;;;;;;30.82;27.87;99600.41;5033264;28;20084;-77
2022/08/13 09:42:36;;;;;;;6.40;1.38;;;;;;;31.00;27.40;99588.31;5016690;28;20515;-77
2022/08/13 09:45:03;;;;;;;3.45;1.25;;;;;;;31.07;27.16;99603.59;5016916;28;20041;-77
2022/08/13 09:47:30;;;;;;;3.80;1.33;;;;;;;30.68;27.47;99600.66;5033486;28;20041;-78
2022/08/13 09:49:56;;;;;;;6.28;1.85;;;;;;;30.57;28.04;99597.97;5033899;28;20045;-77
2022/08/13 09:52:22;;;;;;;4.35;1.80;;;;;;;31.12;27.64;99600.09;5032333;28;20077;-77
2022/08/13 09:54:50;;;;;;;3.20;1.77;;;;;;;31.37;26.93;99594.19;5032901;28;20057;-77
2022/08/13 09:57:20;;;;;;;3.03;1.50;;;;;;;31.23;27.00;99587.28;5000186;28;20099;-78
2022/08/13 09:59:47;;;;;;;6.50;1.65;;;;;;;31.03;27.03;99577.59;5032593;28;20042;-77
2022/08/13 10:02:14;;;;;;;3.80;1.73;;;;;;;31.29;27.09;99591.78;5016108;28;20091;-77
2022/08/13 10:04:42;;;;;;;4.10;1.60;;;;;;;31.23;27.12;99587.28;5033908;28;20045;-77
2022/08/13 10:07:11;;;;;;;8.77;1.48;;;;;;;31.67;27.20;99589.09;5033925;28;20124;-77
2022/08/13 10:09:40;;;;;;;8.18;1.70;;;;;;;32.22;26.35;99579.03;5016167;28;20128;-77
2022/08/13 10:12:08;;;;;;;5.78;1.42;;;;;;;32.40;25.76;99586.16;5015883;28;20053;-77
2022/08/13 10:14:34;;;;;;;3.65;1.40;;;;;;;32.41;25.81;99582.31;5016100;28;20144;-77
2022/08/13 10:17:01;;;;;;;11.57;1.52;;;;;;;32.48;25.87;99577.41;5032585;28;20053;-78
2022/08/13 10:19:27;;;;;;;1.30;1.20;;;;;;;32.55;25.88;99583.56;5016433;28;20451;-77
2022/08/13 10:21:53;;;;;;;3.90;1.40;;;;;;;32.24;25.86;99576.00;5033794;28;20038;-77
2022/08/13 10:24:19;;;;;;;2.67;1.35;;;;;;;31.87;25.91;99571.13;5015836;28;20045;-77
2022/08/13 10:26:45;;;;;;;5.50;1.20;;;;;;;32.47;25.93;99566.59;5015966;28;20408;-77
2022/08/13 10:29:11;;;;;;;9.38;1.80;;;;;;;32.59;25.14;99565.34;5034136;28;20077;-78
2022/08/13 10:31:38;;;;;;;3.90;1.20;;;;;;;32.50;25.21;99569.69;5032389;28;20095;-78
2022/08/13 10:34:05;;;;;;;10.80;1.20;;;;;;;33.11;24.98;99558.34;5015836;28;20064;-77
2022/08/13 10:36:33;;;;;;;6.80;1.70;;;;;;;33.86;23.83;99545.22;4999247;28;20044;-77
2022/08/13 10:38:59;;;;;;;4.97;1.20;;;;;;;34.00;23.32;99554.75;4998942;28;20053;-77
2022/08/13 10:41:25;;;;;;;3.92;1.60;;;;;;;33.90;23.26;99557.44;5032005;28;20456;-77
2022/08/13 10:43:59;;;;;;;7.03;1.48;;;;;;;33.47;23.89;99564.97;5033279;28;20606;-77
2022/08/13 10:46:31;;;;;;;7.32;1.30;;;;;;;33.55;23.86;99552.53;5015654;28;20113;-78
2022/08/13 10:48:58;;;;;;;2.20;1.05;;;;;;;33.51;23.99;99563.38;5032016;28;20114;-77
2022/08/13 10:51:29;;;;;;;2.85;1.10;;;;;;;34.15;23.76;99553.13;4999070;28;20595;-78
2022/08/13 10:53:56;;;;;;;2.95;1.23;;;;;;;34.93;22.75;99562.16;5032442;28;20132;-76
2022/08/13 10:56:22;;;;;;;4.95;1.40;;;;;;;34.12;22.95;99550.91;5032003;28;20037;-77
2022/08/13 10:58:49;;;;;;;6.90;1.40;;;;;;;33.67;23.26;99555.13;5031849;28;20041;-77
2022/08/13 11:01:15;;;;;;;7.28;1.27;;;;;;;33.68;23.55;99546.53;5031576;28;20057;-76
2022/08/13 11:03:45;;;;;;;9.68;1.33;;;;;;;34.72;23.00;99552.16;5032575;28;20523;-76
2022/08/13 11:06:11;;;;;;;6.43;1.35;;;;;;;35.12;21.85;99556.91;5031656;28;20041;-77
2022/08/13 11:08:38;;;;;;;6.93;1.40;;;;;;;35.19;22.28;99542.72;5031710;28;20056;-79
2022/08/13 11:11:05;;;;;;;6.90;1.40;;;;;;;35.03;22.67;99548.31;5015141;28;20048;-78
2022/08/13 11:13:32;;;;;;;4.93;1.40;;;;;;;35.03;22.47;99528.84;4998961;28;20496;-77
2022/08/13 11:16:00;;;;;;;4.35;1.90;;;;;;;35.53;22.25;99547.69;4998744;28;20533;-77
2022/08/13 11:18:28;;;;;;;6.35;1.30;;;;;;;35.35;22.13;99540.75;5032708;28;20041;-76
2022/08/13 11:21:06;;;;;;;12.50;1.65;;;;;;;34.63;22.89;99545.47;5014842;28;20045;-75
2022/08/13 11:23:33;;;;;;;2.00;1.30;;;;;;;33.94;23.49;99533.63;5015445;28;20049;-76
2022/08/13 11:25:59;;;;;;;7.00;1.33;;;;;;;33.91;23.46;99533.31;5031862;28;20045;-75
2022/08/13 11:28:25;;;;;;;5.47;1.40;;;;;;;34.40;23.34;99530.16;4998828;28;20550;-75
2022/08/13 11:30:55;;;;;;;6.82;1.60;;;;;;;34.71;22.90;99536.59;5031467;28;20053;-75
2022/08/13 11:33:23;;;;;;;5.43;1.80;;;;;;;34.69;23.17;99536.06;5031548;28;20065;-75
2022/08/13 11:35:51;;;;;;;6.78;1.65;;;;;;;35.33;22.51;99531.88;4998592;28;20140;-76
2022/08/13 11:38:19;;;;;;;;;;;;;;;34.64;22.89;99550.78;5031773;28;20049;-74
2022/08/13 11:40:48;;;;;;;6.70;1.40;;;;;;;34.61;23.05;99531.06;5047747;28;19928;-77
2022/08/13 11:43:14;;;;;;;9.85;1.50;;;;;;;34.38;23.38;99521.25;5050421;28;20044;-74
2022/08/13 11:45:40;;;;;;;7.63;1.58;;;;;;;35.23;22.74;99527.16;5030941;28;20417;-77
2022/08/13 11:48:06;;;;;;;3.45;1.50;;;;;;;36.52;21.51;99542.25;5031139;28;20048;-77
2022/08/13 11:50:33;;;;;;;5.05;0.93;;;;;;;36.64;20.41;99528.81;4998628;28;20065;-74
2022/08/13 11:52:59;;;;;;;4.70;1.00;;;;;;;36.56;20.91;99538.63;5031697;28;20099;-75
2022/08/13 11:55:25;;;;;;;3.28;1.00;;;;;;;36.96;20.71;99531.06;5023891;28;20132;-75
2022/08/13 11:58:02;;;;;;;4.03;1.50;;;;;;;36.89;20.94;99524.97;5050921;28;20124;-79
2022/08/13 12:00:28;;;;;;;2.63;1.30;;;;;;;36.98;21.02;99508.50;5051367;28;20083;-75
2022/08/13 12:02:54;;;;;;;10.32;1.80;;;;;;;37.26;20.97;99518.78;5051971;28;20136;-74
2022/08/13 12:05:20;;;;;;;9.45;1.85;;;;;;;37.65;20.83;99518.66;5050919;28;20045;-77
2022/08/13 12:07:46;;;;;;;2.55;1.50;;;;;;;37.93;20.14;99509.69;5034351;28;20045;-74